CEB411 RPVM-RPMZ
Flight info
| Callsign | CEB411 |
|---|---|
| Flight time | 0h 47m |
| Altitude | 32000 |
| Route | ALDIN4P ALDIN G578 PARAL PARAL2W |
| Aircraft | A20N/M-SDE2E3FGHIRWXY/LB1 |
Departure
| Time | 2026-04-22 01:36 |
|---|---|
| Airport | Mactan Cebu International Airport (RPVM) |
Arrival
| Time | 2026-04-22 02:24 |
|---|---|
| Airport | Zamboanga International Airport (RPMZ) |
| Time | Latitude | Longitude | Altitude | Speed | Heading |
|---|---|---|---|---|---|
| 2026-04-22 01:17 | 10.31396 | 123.98077 | 38 ft | 0 kts | 315° |
| 2026-04-22 01:23 | 10.31387 | 123.98086 | 38 ft | 2 kts | 315° |
| 2026-04-22 01:23 | 10.31376 | 123.98098 | 38 ft | 2 kts | 315° |
| 2026-04-22 01:24 | 10.31369 | 123.98105 | 38 ft | 1 kts | 315° |
| 2026-04-22 01:24 | 10.31361 | 123.98117 | 38 ft | 2 kts | 283° |
| 2026-04-22 01:24 | 10.31360 | 123.98132 | 38 ft | 2 kts | 257° |
| 2026-04-22 01:24 | 10.31366 | 123.98146 | 38 ft | 1 kts | 230° |
| 2026-04-22 01:25 | 10.31371 | 123.98151 | 38 ft | 1 kts | 221° |
| 2026-04-22 01:25 | 10.31373 | 123.98153 | 38 ft | 0 kts | 224° |
| 2026-04-22 01:27 | 10.31371 | 123.98151 | 38 ft | 1 kts | 224° |
| 2026-04-22 01:27 | 10.31354 | 123.98134 | 38 ft | 5 kts | 225° |
| 2026-04-22 01:27 | 10.31327 | 123.98106 | 38 ft | 5 kts | 225° |
| 2026-04-22 01:28 | 10.31299 | 123.98077 | 38 ft | 5 kts | 224° |
| 2026-04-22 01:28 | 10.31270 | 123.98048 | 38 ft | 5 kts | 225° |
| 2026-04-22 01:28 | 10.31240 | 123.98019 | 38 ft | 6 kts | 225° |
| 2026-04-22 01:28 | 10.31209 | 123.97987 | 38 ft | 6 kts | 225° |
| 2026-04-22 01:29 | 10.31172 | 123.97950 | 38 ft | 9 kts | 225° |
| 2026-04-22 01:29 | 10.31121 | 123.97899 | 38 ft | 10 kts | 226° |
| 2026-04-22 01:29 | 10.31068 | 123.97846 | 38 ft | 10 kts | 225° |
| 2026-04-22 01:30 | 10.30910 | 123.97686 | 38 ft | 10 kts | 225° |
| 2026-04-22 01:30 | 10.30859 | 123.97634 | 38 ft | 10 kts | 225° |
| 2026-04-22 01:30 | 10.30808 | 123.97583 | 38 ft | 10 kts | 225° |
| 2026-04-22 01:31 | 10.30755 | 123.97530 | 38 ft | 11 kts | 224° |
| 2026-04-22 01:31 | 10.30697 | 123.97472 | 38 ft | 12 kts | 225° |
| 2026-04-22 01:31 | 10.30633 | 123.97409 | 38 ft | 13 kts | 224° |
| 2026-04-22 01:31 | 10.30565 | 123.97340 | 38 ft | 14 kts | 224° |
| 2026-04-22 01:32 | 10.30494 | 123.97269 | 38 ft | 14 kts | 224° |
| 2026-04-22 01:32 | 10.30417 | 123.97194 | 38 ft | 15 kts | 225° |
| 2026-04-22 01:32 | 10.30339 | 123.97115 | 38 ft | 16 kts | 225° |
| 2026-04-22 01:32 | 10.30258 | 123.97034 | 38 ft | 16 kts | 224° |
| 2026-04-22 01:33 | 10.30174 | 123.96950 | 38 ft | 17 kts | 225° |
| 2026-04-22 01:33 | 10.30089 | 123.96866 | 38 ft | 17 kts | 224° |
| 2026-04-22 01:33 | 10.30002 | 123.96779 | 38 ft | 17 kts | 225° |
| 2026-04-22 01:33 | 10.29939 | 123.96716 | 38 ft | 10 kts | 220° |
| 2026-04-22 01:34 | 10.29879 | 123.96712 | 38 ft | 8 kts | 146° |
| 2026-04-22 01:34 | 10.29844 | 123.96747 | 38 ft | 6 kts | 134° |
| 2026-04-22 01:34 | 10.29811 | 123.96781 | 38 ft | 7 kts | 134° |
| 2026-04-22 01:34 | 10.29773 | 123.96820 | 38 ft | 8 kts | 135° |
| 2026-04-22 01:35 | 10.29730 | 123.96864 | 38 ft | 9 kts | 134° |
| 2026-04-22 01:35 | 10.29713 | 123.96891 | 38 ft | 4 kts | 85° |
| 2026-04-22 01:35 | 10.29729 | 123.96913 | 38 ft | 0 kts | 44° |
| 2026-04-22 01:35 | 10.29768 | 123.96950 | 38 ft | 35 kts | 44° |
| 2026-04-22 01:36 | 10.30123 | 123.97308 | 38 ft | 105 kts | 45° |
| 2026-04-22 01:36 | 10.30788 | 123.97975 | 55 ft | 158 kts | 45° |
| 2026-04-22 01:36 | 10.31583 | 123.98777 | 573 ft | 162 kts | 45° |
| 2026-04-22 01:36 | 10.32371 | 123.99587 | 1223 ft | 165 kts | 46° |
| 2026-04-22 01:37 | 10.33170 | 124.00407 | 1930 ft | 166 kts | 47° |
| 2026-04-22 01:37 | 10.33751 | 124.01458 | 2362 ft | 183 kts | 83° |
| 2026-04-22 01:37 | 10.33471 | 124.02758 | 2835 ft | 204 kts | 117° |
| 2026-04-22 01:37 | 10.32619 | 124.04012 | 3294 ft | 228 kts | 123° |
| 2026-04-22 01:38 | 10.31648 | 124.05368 | 3877 ft | 246 kts | 123° |
| 2026-04-22 01:38 | 10.30625 | 124.06810 | 4522 ft | 261 kts | 123° |
| 2026-04-22 01:38 | 10.29557 | 124.08337 | 5391 ft | 266 kts | 123° |
| 2026-04-22 01:38 | 10.28484 | 124.09883 | 6286 ft | 270 kts | 123° |
| 2026-04-22 01:39 | 10.27402 | 124.11452 | 7119 ft | 274 kts | 124° |
| 2026-04-22 01:39 | 10.26311 | 124.13041 | 7932 ft | 279 kts | 124° |
| 2026-04-22 01:39 | 10.25198 | 124.14663 | 8730 ft | 284 kts | 124° |
| 2026-04-22 01:39 | 10.24064 | 124.16317 | 9497 ft | 288 kts | 125° |
| 2026-04-22 01:40 | 10.22915 | 124.17992 | 10241 ft | 293 kts | 125° |
| 2026-04-22 01:40 | 10.21730 | 124.19720 | 10736 ft | 306 kts | 126° |
| 2026-04-22 01:40 | 10.20304 | 124.21369 | 11077 ft | 322 kts | 144° |
| 2026-04-22 01:40 | 10.18255 | 124.22352 | 11668 ft | 328 kts | 168° |
| 2026-04-22 01:41 | 10.15970 | 124.22443 | 12365 ft | 329 kts | 189° |
| 2026-04-22 01:41 | 10.13724 | 124.21993 | 13053 ft | 332 kts | 192° |
| 2026-04-22 01:41 | 10.11455 | 124.21516 | 13715 ft | 335 kts | 192° |
| 2026-04-22 01:41 | 10.09142 | 124.21035 | 14348 ft | 339 kts | 192° |
| 2026-04-22 01:42 | 10.06834 | 124.20561 | 14949 ft | 343 kts | 192° |
| 2026-04-22 01:42 | 10.04466 | 124.20080 | 15531 ft | 347 kts | 192° |
| 2026-04-22 01:42 | 10.02090 | 124.19601 | 16089 ft | 351 kts | 192° |
| 2026-04-22 01:42 | 9.99670 | 124.19114 | 16636 ft | 355 kts | 192° |
| 2026-04-22 01:43 | 9.97205 | 124.18619 | 17177 ft | 359 kts | 192° |
| 2026-04-22 01:43 | 9.94758 | 124.18130 | 17704 ft | 363 kts | 192° |
| 2026-04-22 01:43 | 9.92268 | 124.17628 | 18221 ft | 366 kts | 192° |
| 2026-04-22 01:43 | 9.89729 | 124.17119 | 18740 ft | 369 kts | 191° |
| 2026-04-22 01:44 | 9.87223 | 124.16618 | 19231 ft | 373 kts | 191° |
| 2026-04-22 01:44 | 9.84657 | 124.16106 | 19706 ft | 377 kts | 191° |
| 2026-04-22 01:44 | 9.82079 | 124.15414 | 20185 ft | 381 kts | 200° |
| 2026-04-22 01:44 | 9.79708 | 124.14249 | 20663 ft | 384 kts | 211° |
| 2026-04-22 01:45 | 9.77523 | 124.12634 | 21134 ft | 388 kts | 218° |
| 2026-04-22 01:45 | 9.75434 | 124.10884 | 21570 ft | 392 kts | 219° |
| 2026-04-22 01:45 | 9.73323 | 124.09086 | 21996 ft | 397 kts | 219° |
| 2026-04-22 01:45 | 9.71217 | 124.07295 | 22429 ft | 400 kts | 219° |
| 2026-04-22 01:46 | 9.69078 | 124.05486 | 22904 ft | 403 kts | 219° |
| 2026-04-22 01:46 | 9.66913 | 124.03660 | 23411 ft | 405 kts | 219° |
| 2026-04-22 01:46 | 9.64725 | 124.01818 | 23914 ft | 407 kts | 219° |
| 2026-04-22 01:46 | 9.62562 | 123.99999 | 24394 ft | 409 kts | 219° |
| 2026-04-22 01:47 | 9.60357 | 123.98148 | 24866 ft | 412 kts | 219° |
| 2026-04-22 01:47 | 9.58146 | 123.96294 | 25347 ft | 414 kts | 219° |
| 2026-04-22 01:47 | 9.55922 | 123.94427 | 25810 ft | 416 kts | 219° |
| 2026-04-22 01:47 | 9.53694 | 123.92555 | 26247 ft | 419 kts | 219° |
| 2026-04-22 01:48 | 9.51402 | 123.90632 | 26696 ft | 421 kts | 219° |
| 2026-04-22 01:48 | 9.49137 | 123.88731 | 27138 ft | 423 kts | 219° |
| 2026-04-22 01:48 | 9.46843 | 123.86804 | 27576 ft | 425 kts | 219° |
| 2026-04-22 01:48 | 9.44568 | 123.84895 | 27994 ft | 426 kts | 219° |
| 2026-04-22 01:49 | 9.42295 | 123.82989 | 28414 ft | 427 kts | 219° |
| 2026-04-22 01:49 | 9.40011 | 123.81040 | 28829 ft | 429 kts | 222° |
| 2026-04-22 01:49 | 9.37893 | 123.78899 | 29200 ft | 431 kts | 228° |
| 2026-04-22 01:49 | 9.36017 | 123.76547 | 29599 ft | 432 kts | 234° |
| 2026-04-22 01:50 | 9.34388 | 123.73978 | 30094 ft | 430 kts | 240° |
| 2026-04-22 01:50 | 9.32979 | 123.71334 | 30538 ft | 430 kts | 242° |
| 2026-04-22 01:50 | 9.31589 | 123.68623 | 30886 ft | 431 kts | 243° |
| 2026-04-22 01:50 | 9.30226 | 123.65953 | 31205 ft | 433 kts | 243° |
| 2026-04-22 01:51 | 9.28830 | 123.63231 | 31525 ft | 435 kts | 243° |
| 2026-04-22 01:51 | 9.27430 | 123.60509 | 31842 ft | 436 kts | 243° |
| 2026-04-22 01:51 | 9.24621 | 123.55065 | 31906 ft | 439 kts | 243° |
| 2026-04-22 01:52 | 9.22686 | 123.51324 | 31910 ft | 439 kts | 243° |
| 2026-04-22 01:52 | 9.20271 | 123.46659 | 31912 ft | 438 kts | 243° |
| 2026-04-22 01:53 | 9.17454 | 123.41218 | 31917 ft | 438 kts | 243° |
| 2026-04-22 01:53 | 9.14478 | 123.35842 | 31919 ft | 438 kts | 236° |
| 2026-04-22 01:54 | 9.10652 | 123.31027 | 31921 ft | 438 kts | 226° |
| 2026-04-22 01:54 | 9.06053 | 123.27045 | 31915 ft | 437 kts | 215° |
| 2026-04-22 01:55 | 9.00839 | 123.23854 | 31909 ft | 436 kts | 210° |
| 2026-04-22 01:55 | 8.95537 | 123.20848 | 31902 ft | 436 kts | 210° |
| 2026-04-22 01:56 | 8.90266 | 123.17852 | 31899 ft | 436 kts | 210° |
| 2026-04-22 01:56 | 8.84976 | 123.14850 | 31898 ft | 435 kts | 210° |
| 2026-04-22 01:57 | 8.79657 | 123.11826 | 31897 ft | 436 kts | 210° |
| 2026-04-22 01:57 | 8.74385 | 123.08821 | 31899 ft | 435 kts | 210° |
| 2026-04-22 01:58 | 8.69077 | 123.05794 | 31905 ft | 435 kts | 210° |
| 2026-04-22 01:58 | 8.63808 | 123.02789 | 31906 ft | 435 kts | 210° |
| 2026-04-22 01:59 | 8.58534 | 122.99783 | 31903 ft | 435 kts | 210° |
| 2026-04-22 01:59 | 8.53240 | 122.96765 | 31870 ft | 436 kts | 210° |
| 2026-04-22 02:00 | 8.50621 | 122.95272 | 31523 ft | 435 kts | 210° |
| 2026-04-22 02:00 | 8.47961 | 122.93755 | 31069 ft | 432 kts | 210° |
| 2026-04-22 02:00 | 8.45380 | 122.92283 | 30501 ft | 431 kts | 209° |
| 2026-04-22 02:00 | 8.42770 | 122.90795 | 29875 ft | 431 kts | 209° |
| 2026-04-22 02:01 | 8.40163 | 122.89310 | 29215 ft | 431 kts | 209° |
| 2026-04-22 02:01 | 8.37545 | 122.87817 | 28694 ft | 428 kts | 208° |
| 2026-04-22 02:01 | 8.34955 | 122.86343 | 28270 ft | 423 kts | 208° |
| 2026-04-22 02:01 | 8.32380 | 122.84880 | 27815 ft | 419 kts | 208° |
| 2026-04-22 02:02 | 8.29839 | 122.83434 | 27361 ft | 416 kts | 208° |
| 2026-04-22 02:02 | 8.27338 | 122.82011 | 26912 ft | 413 kts | 208° |
| 2026-04-22 02:02 | 8.24854 | 122.80598 | 26458 ft | 410 kts | 208° |
| 2026-04-22 02:02 | 8.22373 | 122.79186 | 25981 ft | 408 kts | 208° |
| 2026-04-22 02:03 | 8.19904 | 122.77781 | 25509 ft | 405 kts | 208° |
| 2026-04-22 02:03 | 8.17439 | 122.76379 | 25033 ft | 404 kts | 208° |
| 2026-04-22 02:03 | 8.15017 | 122.75002 | 24560 ft | 402 kts | 208° |
| 2026-04-22 02:03 | 8.12570 | 122.73611 | 24084 ft | 400 kts | 208° |
| 2026-04-22 02:04 | 8.07752 | 122.70871 | 23155 ft | 397 kts | 208° |
| 2026-04-22 02:04 | 8.05355 | 122.69508 | 22695 ft | 395 kts | 208° |
| 2026-04-22 02:04 | 8.02943 | 122.68139 | 22230 ft | 394 kts | 208° |
| 2026-04-22 02:05 | 8.00555 | 122.66783 | 21783 ft | 392 kts | 208° |
| 2026-04-22 02:05 | 7.98200 | 122.65446 | 21362 ft | 390 kts | 208° |
| 2026-04-22 02:05 | 7.95830 | 122.64100 | 20950 ft | 387 kts | 208° |
| 2026-04-22 02:05 | 7.93505 | 122.62779 | 20554 ft | 384 kts | 208° |
| 2026-04-22 02:06 | 7.91177 | 122.61457 | 20156 ft | 381 kts | 208° |
| 2026-04-22 02:06 | 7.88876 | 122.60152 | 19760 ft | 378 kts | 208° |
| 2026-04-22 02:06 | 7.86573 | 122.58852 | 19352 ft | 375 kts | 208° |
| 2026-04-22 02:06 | 7.84309 | 122.57574 | 18958 ft | 372 kts | 208° |
| 2026-04-22 02:07 | 7.82053 | 122.56299 | 18550 ft | 369 kts | 209° |
| 2026-04-22 02:07 | 7.79844 | 122.55048 | 18160 ft | 366 kts | 209° |
| 2026-04-22 02:07 | 7.77624 | 122.53790 | 17768 ft | 363 kts | 209° |
| 2026-04-22 02:07 | 7.75419 | 122.52539 | 17370 ft | 360 kts | 210° |
| 2026-04-22 02:08 | 7.73224 | 122.51292 | 16974 ft | 357 kts | 210° |
| 2026-04-22 02:08 | 7.71059 | 122.50063 | 16581 ft | 355 kts | 209° |
| 2026-04-22 02:08 | 7.68911 | 122.48844 | 16176 ft | 352 kts | 209° |
| 2026-04-22 02:08 | 7.66773 | 122.47630 | 15781 ft | 349 kts | 210° |
| 2026-04-22 02:09 | 7.64666 | 122.46435 | 15387 ft | 347 kts | 210° |
| 2026-04-22 02:09 | 7.62568 | 122.45245 | 14994 ft | 344 kts | 210° |
| 2026-04-22 02:09 | 7.60482 | 122.44062 | 14594 ft | 342 kts | 210° |
| 2026-04-22 02:09 | 7.58407 | 122.42886 | 14192 ft | 339 kts | 210° |
| 2026-04-22 02:10 | 7.56352 | 122.41720 | 13797 ft | 337 kts | 210° |
| 2026-04-22 02:10 | 7.54315 | 122.40565 | 13390 ft | 335 kts | 210° |
| 2026-04-22 02:10 | 7.52296 | 122.39420 | 12995 ft | 333 kts | 210° |
| 2026-04-22 02:10 | 7.50277 | 122.38274 | 12592 ft | 331 kts | 210° |
| 2026-04-22 02:11 | 7.48284 | 122.37143 | 12198 ft | 329 kts | 209° |
| 2026-04-22 02:11 | 7.46267 | 122.35998 | 11797 ft | 327 kts | 209° |
| 2026-04-22 02:11 | 7.44299 | 122.34881 | 11414 ft | 325 kts | 209° |
| 2026-04-22 02:11 | 7.42334 | 122.33756 | 11021 ft | 323 kts | 209° |
| 2026-04-22 02:12 | 7.40379 | 122.32634 | 10631 ft | 321 kts | 209° |
| 2026-04-22 02:12 | 7.38461 | 122.31539 | 10248 ft | 319 kts | 208° |
| 2026-04-22 02:12 | 7.36544 | 122.30449 | 10047 ft | 308 kts | 208° |
| 2026-04-22 02:12 | 7.34702 | 122.29404 | 10005 ft | 293 kts | 208° |
| 2026-04-22 02:13 | 7.32957 | 122.28416 | 9764 ft | 287 kts | 208° |
| 2026-04-22 02:13 | 7.31209 | 122.27426 | 9432 ft | 285 kts | 208° |
| 2026-04-22 02:13 | 7.29433 | 122.26566 | 9083 ft | 282 kts | 195° |
| 2026-04-22 02:13 | 7.27517 | 122.26355 | 8746 ft | 279 kts | 174° |
| 2026-04-22 02:14 | 7.25586 | 122.26653 | 8413 ft | 276 kts | 168° |
| 2026-04-22 02:14 | 7.23707 | 122.27004 | 8089 ft | 275 kts | 168° |
| 2026-04-22 02:14 | 7.21818 | 122.27361 | 7768 ft | 273 kts | 168° |
| 2026-04-22 02:14 | 7.19944 | 122.27709 | 7448 ft | 272 kts | 168° |
| 2026-04-22 02:15 | 7.18089 | 122.28047 | 7132 ft | 270 kts | 168° |
| 2026-04-22 02:15 | 7.16234 | 122.28381 | 6820 ft | 269 kts | 168° |
| 2026-04-22 02:15 | 7.14386 | 122.28712 | 6512 ft | 268 kts | 168° |
| 2026-04-22 02:15 | 7.12548 | 122.29039 | 6205 ft | 266 kts | 168° |
| 2026-04-22 02:16 | 7.10729 | 122.29365 | 5896 ft | 265 kts | 168° |
| 2026-04-22 02:16 | 7.08908 | 122.29689 | 5586 ft | 264 kts | 168° |
| 2026-04-22 02:16 | 7.07098 | 122.30012 | 5283 ft | 263 kts | 168° |
| 2026-04-22 02:16 | 7.05307 | 122.30331 | 4995 ft | 261 kts | 168° |
| 2026-04-22 02:17 | 7.03500 | 122.30651 | 4695 ft | 260 kts | 168° |
| 2026-04-22 02:17 | 7.01707 | 122.30971 | 4398 ft | 259 kts | 168° |
| 2026-04-22 02:17 | 6.99941 | 122.31284 | 4214 ft | 252 kts | 169° |
| 2026-04-22 02:17 | 6.98249 | 122.31354 | 4169 ft | 240 kts | 187° |
| 2026-04-22 02:18 | 6.96654 | 122.30859 | 3953 ft | 236 kts | 202° |
| 2026-04-22 02:18 | 6.95158 | 122.30183 | 3747 ft | 232 kts | 204° |
| 2026-04-22 02:18 | 6.93685 | 122.29497 | 3486 ft | 231 kts | 204° |
| 2026-04-22 02:18 | 6.92241 | 122.28818 | 3214 ft | 230 kts | 209° |
| 2026-04-22 02:19 | 6.91113 | 122.27701 | 2950 ft | 227 kts | 246° |
| 2026-04-22 02:19 | 6.90821 | 122.26194 | 2864 ft | 219 kts | 270° |
| 2026-04-22 02:19 | 6.90916 | 122.24701 | 2814 ft | 209 kts | 277° |
| 2026-04-22 02:19 | 6.91075 | 122.23277 | 2894 ft | 194 kts | 277° |
| 2026-04-22 02:20 | 6.91198 | 122.21994 | 2858 ft | 178 kts | 275° |
| 2026-04-22 02:20 | 6.91289 | 122.20787 | 2699 ft | 168 kts | 275° |
| 2026-04-22 02:20 | 6.91364 | 122.19637 | 2453 ft | 161 kts | 274° |
| 2026-04-22 02:20 | 6.91431 | 122.18540 | 2224 ft | 150 kts | 274° |
| 2026-04-22 02:21 | 6.91494 | 122.17519 | 2047 ft | 145 kts | 275° |
| 2026-04-22 02:21 | 6.91525 | 122.17014 | 1960 ft | 144 kts | 275° |
| 2026-04-22 02:21 | 6.91573 | 122.16246 | 1816 ft | 143 kts | 275° |
| 2026-04-22 02:21 | 6.91638 | 122.15255 | 1634 ft | 142 kts | 275° |
| 2026-04-22 02:22 | 6.91701 | 122.14274 | 1450 ft | 140 kts | 275° |
| 2026-04-22 02:22 | 6.91764 | 122.13300 | 1260 ft | 138 kts | 275° |
| 2026-04-22 02:22 | 6.91828 | 122.12331 | 1081 ft | 137 kts | 275° |
| 2026-04-22 02:22 | 6.91889 | 122.11376 | 896 ft | 136 kts | 273° |
| 2026-04-22 02:23 | 6.91939 | 122.10438 | 716 ft | 135 kts | 274° |
| 2026-04-22 02:23 | 6.92000 | 122.09499 | 542 ft | 135 kts | 274° |
| 2026-04-22 02:23 | 6.92073 | 122.08562 | 374 ft | 134 kts | 274° |
| 2026-04-22 02:23 | 6.92126 | 122.07626 | 194 ft | 133 kts | 275° |
| 2026-04-22 02:24 | 6.92192 | 122.06714 | 64 ft | 125 kts | 272° |
| 2026-04-22 02:24 | 6.92242 | 122.05970 | 55 ft | 81 kts | 274° |
| 2026-04-22 02:24 | 6.92267 | 122.05594 | 52 ft | 26 kts | 274° |
| 2026-04-22 02:24 | 6.92275 | 122.05484 | 51 ft | 14 kts | 275° |
| 2026-04-22 02:25 | 6.92272 | 122.05410 | 51 ft | 6 kts | 254° |
| 2026-04-22 02:25 | 6.92274 | 122.05390 | 51 ft | 3 kts | 20° |
| 2026-04-22 02:25 | 6.92279 | 122.05415 | 51 ft | 7 kts | 90° |
| 2026-04-22 02:25 | 6.92274 | 122.05486 | 51 ft | 11 kts | 94° |
| 2026-04-22 02:26 | 6.92268 | 122.05566 | 52 ft | 11 kts | 94° |
| 2026-04-22 02:26 | 6.92263 | 122.05649 | 52 ft | 12 kts | 93° |
| 2026-04-22 02:26 | 6.92258 | 122.05736 | 53 ft | 12 kts | 93° |
| 2026-04-22 02:26 | 6.92252 | 122.05820 | 55 ft | 11 kts | 94° |
| 2026-04-22 02:27 | 6.92247 | 122.05893 | 55 ft | 7 kts | 94° |
| 2026-04-22 02:27 | 6.92242 | 122.05952 | 55 ft | 8 kts | 100° |
| 2026-04-22 02:27 | 6.92207 | 122.05997 | 55 ft | 4 kts | 142° |
| 2026-04-22 02:27 | 6.92180 | 122.06019 | 55 ft | 5 kts | 142° |
| 2026-04-22 02:28 | 6.92155 | 122.06039 | 56 ft | 3 kts | 135° |
| 2026-04-22 02:28 | 6.92145 | 122.06059 | 56 ft | 2 kts | 105° |
| 2026-04-22 02:28 | 6.92141 | 122.06078 | 56 ft | 3 kts | 99° |
| 2026-04-22 02:28 | 6.92122 | 122.06100 | 57 ft | 4 kts | 156° |
| 2026-04-22 02:29 | 6.92094 | 122.06113 | 57 ft | 4 kts | 155° |
| 2026-04-22 02:29 | 6.92070 | 122.06124 | 57 ft | 3 kts | 155° |
| 2026-04-22 02:29 | 6.92049 | 122.06133 | 57 ft | 2 kts | 155° |
| 2026-04-22 02:29 | 6.92045 | 122.06136 | 57 ft | 0 kts | 155° |
| 2026-04-22 02:30 | 6.92044 | 122.06136 | 57 ft | 0 kts | 155° |